sensor_id;sensor_type;location;lat;lon;timestamp;P1;durP1;ratioP1;P2;durP2;ratioP2
33987;SDS011;37428;53.580;-1.666;2023-05-10T00:02:18;12.68;;;5.30;;
33987;SDS011;37428;53.580;-1.666;2023-05-10T00:05:20;17.48;;;5.70;;
33987;SDS011;37428;53.580;-1.666;2023-05-10T00:08:24;16.20;;;5.43;;
33987;SDS011;37428;53.580;-1.666;2023-05-10T00:11:26;9.13;;;4.63;;
33987;SDS011;37428;53.580;-1.666;2023-05-10T00:14:28;13.55;;;5.82;;
33987;SDS011;37428;53.580;-1.666;2023-05-10T00:17:30;19.08;;;6.28;;
33987;SDS011;37428;53.580;-1.666;2023-05-10T00:20:33;15.35;;;5.60;;
33987;SDS011;37428;53.580;-1.666;2023-05-10T00:23:36;17.80;;;4.95;;
33987;SDS011;37428;53.580;-1.666;2023-05-10T00:26:39;16.65;;;5.18;;
33987;SDS011;37428;53.580;-1.666;2023-05-10T00:29:42;17.00;;;5.65;;
33987;SDS011;37428;53.580;-1.666;2023-05-10T00:32:44;17.63;;;5.00;;
33987;SDS011;37428;53.580;-1.666;2023-05-10T00:35:48;16.23;;;6.07;;
33987;SDS011;37428;53.580;-1.666;2023-05-10T00:38:52;16.38;;;5.63;;
33987;SDS011;37428;53.580;-1.666;2023-05-10T00:41:54;15.52;;;5.20;;
33987;SDS011;37428;53.580;-1.666;2023-05-10T00:44:56;16.23;;;5.80;;
33987;SDS011;37428;53.580;-1.666;2023-05-10T00:47:59;16.35;;;5.50;;
33987;SDS011;37428;53.580;-1.666;2023-05-10T00:51:02;21.85;;;6.22;;
33987;SDS011;37428;53.580;-1.666;2023-05-10T00:54:06;15.48;;;5.30;;
33987;SDS011;37428;53.580;-1.666;2023-05-10T00:57:08;13.13;;;5.25;;
33987;SDS011;37428;53.580;-1.666;2023-05-10T01:00:12;19.15;;;5.18;;
33987;SDS011;37428;53.580;-1.666;2023-05-10T01:03:18;16.08;;;6.07;;
33987;SDS011;37428;53.580;-1.666;2023-05-10T01:06:20;14.68;;;5.72;;
33987;SDS011;37428;53.580;-1.666;2023-05-10T01:09:24;17.45;;;5.82;;
33987;SDS011;37428;53.580;-1.666;2023-05-10T01:12:27;20.20;;;5.68;;
33987;SDS011;37428;53.580;-1.666;2023-05-10T01:15:29;14.68;;;6.38;;
33987;SDS011;37428;53.580;-1.666;2023-05-10T01:18:33;16.55;;;5.97;;
33987;SDS011;37428;53.580;-1.666;2023-05-10T01:21:38;15.32;;;5.68;;
33987;SDS011;37428;53.580;-1.666;2023-05-10T01:25:00;17.02;;;6.10;;
33987;SDS011;37428;53.580;-1.666;2023-05-10T01:28:23;15.98;;;5.75;;
33987;SDS011;37428;53.580;-1.666;2023-05-10T01:32:07;17.10;;;4.97;;
33987;SDS011;37428;53.580;-1.666;2023-05-10T01:35:18;19.30;;;5.63;;
33987;SDS011;37428;53.580;-1.666;2023-05-10T01:38:29;20.27;;;5.68;;
33987;SDS011;37428;53.580;-1.666;2023-05-10T01:41:48;12.15;;;5.30;;
33987;SDS011;37428;53.580;-1.666;2023-05-10T01:44:55;17.17;;;5.70;;
33987;SDS011;37428;53.580;-1.666;2023-05-10T01:48:07;11.13;;;4.95;;
33987;SDS011;37428;53.580;-1.666;2023-05-10T01:51:11;10.63;;;3.95;;
33987;SDS011;37428;53.580;-1.666;2023-05-10T01:54:14;18.65;;;4.13;;
33987;SDS011;37428;53.580;-1.666;2023-05-10T01:57:19;12.20;;;3.80;;
33987;SDS011;37428;53.580;-1.666;2023-05-10T02:00:23;11.60;;;3.70;;
33987;SDS011;37428;53.580;-1.666;2023-05-10T02:03:27;15.52;;;4.07;;
33987;SDS011;37428;53.580;-1.666;2023-05-10T02:06:31;13.07;;;3.67;;
33987;SDS011;37428;53.580;-1.666;2023-05-10T02:09:34;20.45;;;4.80;;
33987;SDS011;37428;53.580;-1.666;2023-05-10T02:12:39;11.40;;;3.70;;
33987;SDS011;37428;53.580;-1.666;2023-05-10T02:15:43;9.80;;;3.83;;
33987;SDS011;37428;53.580;-1.666;2023-05-10T02:18:49;15.43;;;4.38;;
33987;SDS011;37428;53.580;-1.666;2023-05-10T02:21:55;12.63;;;4.05;;
33987;SDS011;37428;53.580;-1.666;2023-05-10T02:25:00;13.75;;;4.40;;
33987;SDS011;37428;53.580;-1.666;2023-05-10T02:28:03;12.65;;;4.32;;
33987;SDS011;37428;53.580;-1.666;2023-05-10T02:31:06;16.40;;;5.00;;
33987;SDS011;37428;53.580;-1.666;2023-05-10T02:34:11;15.48;;;4.47;;
33987;SDS011;37428;53.580;-1.666;2023-05-10T02:37:15;15.80;;;4.30;;
33987;SDS011;37428;53.580;-1.666;2023-05-10T02:40:18;14.75;;;5.25;;
33987;SDS011;37428;53.580;-1.666;2023-05-10T02:43:22;17.35;;;5.40;;
33987;SDS011;37428;53.580;-1.666;2023-05-10T02:46:25;19.90;;;5.38;;
33987;SDS011;37428;53.580;-1.666;2023-05-10T02:49:29;17.25;;;5.93;;
33987;SDS011;37428;53.580;-1.666;2023-05-10T02:52:36;21.15;;;4.97;;
33987;SDS011;37428;53.580;-1.666;2023-05-10T02:55:41;17.05;;;5.63;;
33987;SDS011;37428;53.580;-1.666;2023-05-10T02:58:47;15.65;;;5.13;;
33987;SDS011;37428;53.580;-1.666;2023-05-10T03:01:49;16.70;;;5.05;;
33987;SDS011;37428;53.580;-1.666;2023-05-10T03:04:53;14.25;;;5.38;;
33987;SDS011;37428;53.580;-1.666;2023-05-10T03:07:55;22.77;;;5.60;;
33987;SDS011;37428;53.580;-1.666;2023-05-10T03:14:10;12.73;;;5.60;;
33987;SDS011;37428;53.580;-1.666;2023-05-10T03:17:20;18.20;;;5.97;;
33987;SDS011;37428;53.580;-1.666;2023-05-10T03:20:29;15.00;;;5.60;;
33987;SDS011;37428;53.580;-1.666;2023-05-10T03:23:38;13.25;;;6.03;;
33987;SDS011;37428;53.580;-1.666;2023-05-10T03:26:44;19.15;;;6.55;;
33987;SDS011;37428;53.580;-1.666;2023-05-10T03:29:48;15.00;;;5.93;;
33987;SDS011;37428;53.580;-1.666;2023-05-10T03:32:52;15.60;;;6.25;;
33987;SDS011;37428;53.580;-1.666;2023-05-10T03:35:55;16.17;;;5.13;;
33987;SDS011;37428;53.580;-1.666;2023-05-10T03:38:57;14.20;;;7.00;;
33987;SDS011;37428;53.580;-1.666;2023-05-10T03:42:00;12.07;;;5.28;;
33987;SDS011;37428;53.580;-1.666;2023-05-10T03:45:02;18.85;;;6.72;;
33987;SDS011;37428;53.580;-1.666;2023-05-10T03:48:07;17.50;;;6.55;;
33987;SDS011;37428;53.580;-1.666;2023-05-10T03:51:13;17.27;;;6.28;;
33987;SDS011;37428;53.580;-1.666;2023-05-10T03:54:15;12.07;;;6.88;;
33987;SDS011;37428;53.580;-1.666;2023-05-10T03:57:17;13.38;;;6.90;;
33987;SDS011;37428;53.580;-1.666;2023-05-10T04:00:19;17.42;;;6.75;;
33987;SDS011;37428;53.580;-1.666;2023-05-10T04:03:21;17.45;;;6.57;;
33987;SDS011;37428;53.580;-1.666;2023-05-10T04:06:27;16.27;;;6.93;;
33987;SDS011;37428;53.580;-1.666;2023-05-10T04:09:29;18.75;;;8.35;;
33987;SDS011;37428;53.580;-1.666;2023-05-10T04:12:31;15.82;;;8.23;;
33987;SDS011;37428;53.580;-1.666;2023-05-10T04:15:33;21.55;;;8.88;;
33987;SDS011;37428;53.580;-1.666;2023-05-10T04:18:36;17.65;;;6.93;;
33987;SDS011;37428;53.580;-1.666;2023-05-10T04:21:41;20.27;;;8.20;;
33987;SDS011;37428;53.580;-1.666;2023-05-10T04:24:43;18.05;;;7.50;;
33987;SDS011;37428;53.580;-1.666;2023-05-10T04:27:45;12.25;;;6.78;;
33987;SDS011;37428;53.580;-1.666;2023-05-10T04:30:47;15.77;;;6.95;;
33987;SDS011;37428;53.580;-1.666;2023-05-10T04:33:49;14.18;;;6.90;;
33987;SDS011;37428;53.580;-1.666;2023-05-10T04:39:56;17.45;;;6.68;;
33987;SDS011;37428;53.580;-1.666;2023-05-10T04:43:00;13.70;;;7.80;;
33987;SDS011;37428;53.580;-1.666;2023-05-10T04:46:02;16.55;;;7.63;;
33987;SDS011;37428;53.580;-1.666;2023-05-10T04:49:05;14.60;;;7.68;;
33987;SDS011;37428;53.580;-1.666;2023-05-10T04:52:09;17.70;;;7.68;;
33987;SDS011;37428;53.580;-1.666;2023-05-10T04:55:12;17.40;;;7.88;;
33987;SDS011;37428;53.580;-1.666;2023-05-10T04:58:14;16.90;;;7.90;;
33987;SDS011;37428;53.580;-1.666;2023-05-10T05:01:16;18.58;;;7.72;;
33987;SDS011;37428;53.580;-1.666;2023-05-10T05:04:18;21.50;;;8.55;;
33987;SDS011;37428;53.580;-1.666;2023-05-10T05:07:24;19.48;;;8.32;;
33987;SDS011;37428;53.580;-1.666;2023-05-10T05:10:26;18.83;;;8.40;;
33987;SDS011;37428;53.580;-1.666;2023-05-10T05:13:28;19.58;;;8.13;;
33987;SDS011;37428;53.580;-1.666;2023-05-10T05:16:32;12.07;;;7.40;;
33987;SDS011;37428;53.580;-1.666;2023-05-10T05:19:34;15.88;;;7.40;;
33987;SDS011;37428;53.580;-1.666;2023-05-10T05:22:38;15.63;;;8.45;;
33987;SDS011;37428;53.580;-1.666;2023-05-10T05:25:40;15.88;;;7.70;;
33987;SDS011;37428;53.580;-1.666;2023-05-10T05:28:43;13.98;;;7.28;;
33987;SDS011;37428;53.580;-1.666;2023-05-10T05:31:45;15.50;;;7.40;;
33987;SDS011;37428;53.580;-1.666;2023-05-10T05:34:47;16.65;;;7.05;;
33987;SDS011;37428;53.580;-1.666;2023-05-10T05:37:52;15.38;;;6.50;;
33987;SDS011;37428;53.580;-1.666;2023-05-10T05:40:54;10.05;;;6.63;;
33987;SDS011;37428;53.580;-1.666;2023-05-10T05:43:56;13.20;;;6.55;;
33987;SDS011;37428;53.580;-1.666;2023-05-10T05:46:58;12.13;;;6.13;;
33987;SDS011;37428;53.580;-1.666;2023-05-10T05:50:01;9.93;;;5.95;;
33987;SDS011;37428;53.580;-1.666;2023-05-10T05:53:04;14.50;;;6.18;;
33987;SDS011;37428;53.580;-1.666;2023-05-10T05:56:08;13.65;;;5.53;;
33987;SDS011;37428;53.580;-1.666;2023-05-10T05:59:10;13.80;;;6.13;;
33987;SDS011;37428;53.580;-1.666;2023-05-10T06:02:12;11.88;;;6.45;;
33987;SDS011;37428;53.580;-1.666;2023-05-10T06:05:14;15.23;;;6.22;;
33987;SDS011;37428;53.580;-1.666;2023-05-10T06:08:18;10.85;;;5.72;;
33987;SDS011;37428;53.580;-1.666;2023-05-10T06:11:21;11.50;;;5.18;;
33987;SDS011;37428;53.580;-1.666;2023-05-10T06:14:23;11.88;;;5.93;;
33987;SDS011;37428;53.580;-1.666;2023-05-10T06:17:25;12.65;;;4.93;;
33987;SDS011;37428;53.580;-1.666;2023-05-10T06:20:27;10.15;;;5.30;;
33987;SDS011;37428;53.580;-1.666;2023-05-10T06:23:32;8.85;;;4.85;;
33987;SDS011;37428;53.580;-1.666;2023-05-10T06:26:35;13.20;;;4.82;;
33987;SDS011;37428;53.580;-1.666;2023-05-10T06:29:39;9.07;;;4.55;;
33987;SDS011;37428;53.580;-1.666;2023-05-10T06:32:41;12.88;;;5.38;;
33987;SDS011;37428;53.580;-1.666;2023-05-10T06:35:45;10.60;;;4.93;;
33987;SDS011;37428;53.580;-1.666;2023-05-10T06:38:48;13.50;;;5.15;;
33987;SDS011;37428;53.580;-1.666;2023-05-10T06:41:51;12.38;;;5.03;;
33987;SDS011;37428;53.580;-1.666;2023-05-10T06:44:54;8.07;;;4.43;;
33987;SDS011;37428;53.580;-1.666;2023-05-10T06:47:56;9.05;;;4.45;;
33987;SDS011;37428;53.580;-1.666;2023-05-10T06:50:58;11.15;;;4.40;;
33987;SDS011;37428;53.580;-1.666;2023-05-10T06:54:02;8.55;;;4.40;;
33987;SDS011;37428;53.580;-1.666;2023-05-10T06:57:04;8.60;;;4.00;;
33987;SDS011;37428;53.580;-1.666;2023-05-10T07:00:07;9.00;;;3.60;;
33987;SDS011;37428;53.580;-1.666;2023-05-10T07:03:10;11.43;;;3.95;;
33987;SDS011;37428;53.580;-1.666;2023-05-10T07:06:12;8.52;;;3.13;;
33987;SDS011;37428;53.580;-1.666;2023-05-10T07:09:16;8.80;;;3.38;;
33987;SDS011;37428;53.580;-1.666;2023-05-10T07:12:18;7.82;;;3.63;;
33987;SDS011;37428;53.580;-1.666;2023-05-10T07:15:20;10.25;;;3.13;;
33987;SDS011;37428;53.580;-1.666;2023-05-10T07:18:23;7.93;;;3.13;;
33987;SDS011;37428;53.580;-1.666;2023-05-10T07:21:25;9.60;;;2.70;;
33987;SDS011;37428;53.580;-1.666;2023-05-10T07:24:30;6.90;;;2.45;;
33987;SDS011;37428;53.580;-1.666;2023-05-10T07:27:33;9.00;;;2.90;;
33987;SDS011;37428;53.580;-1.666;2023-05-10T07:30:35;12.25;;;2.85;;
33987;SDS011;37428;53.580;-1.666;2023-05-10T07:33:37;11.35;;;2.75;;
33987;SDS011;37428;53.580;-1.666;2023-05-10T07:36:39;12.05;;;3.00;;
33987;SDS011;37428;53.580;-1.666;2023-05-10T07:39:43;7.82;;;3.05;;
33987;SDS011;37428;53.580;-1.666;2023-05-10T07:42:45;6.20;;;2.67;;
33987;SDS011;37428;53.580;-1.666;2023-05-10T07:45:47;5.32;;;2.45;;
33987;SDS011;37428;53.580;-1.666;2023-05-10T07:48:49;11.38;;;2.90;;
33987;SDS011;37428;53.580;-1.666;2023-05-10T07:51:52;7.57;;;2.95;;
33987;SDS011;37428;53.580;-1.666;2023-05-10T07:54:55;5.65;;;2.22;;
33987;SDS011;37428;53.580;-1.666;2023-05-10T07:57:57;7.10;;;3.50;;
33987;SDS011;37428;53.580;-1.666;2023-05-10T08:01:01;7.45;;;2.78;;
33987;SDS011;37428;53.580;-1.666;2023-05-10T08:04:03;9.15;;;3.13;;
33987;SDS011;37428;53.580;-1.666;2023-05-10T08:07:05;10.00;;;3.30;;
33987;SDS011;37428;53.580;-1.666;2023-05-10T08:10:09;10.18;;;4.68;;
33987;SDS011;37428;53.580;-1.666;2023-05-10T08:13:12;13.88;;;5.05;;
33987;SDS011;37428;53.580;-1.666;2023-05-10T08:16:14;8.82;;;4.40;;
33987;SDS011;37428;53.580;-1.666;2023-05-10T08:19:16;10.50;;;5.47;;
33987;SDS011;37428;53.580;-1.666;2023-05-10T08:22:21;7.35;;;4.70;;
33987;SDS011;37428;53.580;-1.666;2023-05-10T08:25:25;10.32;;;4.78;;
33987;SDS011;37428;53.580;-1.666;2023-05-10T08:28:27;10.15;;;5.13;;
33987;SDS011;37428;53.580;-1.666;2023-05-10T08:31:29;10.85;;;4.95;;
33987;SDS011;37428;53.580;-1.666;2023-05-10T08:34:31;7.85;;;4.45;;
33987;SDS011;37428;53.580;-1.666;2023-05-10T08:37:34;8.52;;;3.70;;
33987;SDS011;37428;53.580;-1.666;2023-05-10T08:40:37;7.95;;;3.42;;
33987;SDS011;37428;53.580;-1.666;2023-05-10T08:43:42;9.43;;;2.95;;
33987;SDS011;37428;53.580;-1.666;2023-05-10T08:46:46;6.00;;;2.53;;
33987;SDS011;37428;53.580;-1.666;2023-05-10T08:49:53;6.97;;;3.10;;
33987;SDS011;37428;53.580;-1.666;2023-05-10T08:52:57;5.78;;;2.40;;
33987;SDS011;37428;53.580;-1.666;2023-05-10T08:56:03;8.75;;;3.28;;
33987;SDS011;37428;53.580;-1.666;2023-05-10T08:59:05;5.35;;;2.08;;
33987;SDS011;37428;53.580;-1.666;2023-05-10T09:02:08;4.00;;;1.70;;
33987;SDS011;37428;53.580;-1.666;2023-05-10T09:05:13;3.28;;;1.77;;
33987;SDS011;37428;53.580;-1.666;2023-05-10T09:08:16;2.75;;;1.65;;
33987;SDS011;37428;53.580;-1.666;2023-05-10T09:11:21;4.13;;;1.60;;
33987;SDS011;37428;53.580;-1.666;2023-05-10T09:14:25;7.55;;;1.70;;
33987;SDS011;37428;53.580;-1.666;2023-05-10T09:17:28;4.13;;;1.63;;
33987;SDS011;37428;53.580;-1.666;2023-05-10T09:20:31;3.45;;;2.03;;
33987;SDS011;37428;53.580;-1.666;2023-05-10T09:23:33;4.40;;;1.73;;
33987;SDS011;37428;53.580;-1.666;2023-05-10T09:26:39;7.82;;;2.60;;
33987;SDS011;37428;53.580;-1.666;2023-05-10T09:29:49;5.50;;;1.75;;
33987;SDS011;37428;53.580;-1.666;2023-05-10T09:32:54;4.90;;;2.08;;
33987;SDS011;37428;53.580;-1.666;2023-05-10T09:36:05;3.22;;;2.30;;
33987;SDS011;37428;53.580;-1.666;2023-05-10T09:39:09;2.45;;;1.40;;
33987;SDS011;37428;53.580;-1.666;2023-05-10T09:42:13;2.20;;;1.42;;
33987;SDS011;37428;53.580;-1.666;2023-05-10T09:45:20;3.55;;;2.03;;
33987;SDS011;37428;53.580;-1.666;2023-05-10T09:48:23;3.35;;;2.08;;
33987;SDS011;37428;53.580;-1.666;2023-05-10T09:51:26;4.60;;;2.35;;
33987;SDS011;37428;53.580;-1.666;2023-05-10T09:54:28;2.95;;;1.90;;
33987;SDS011;37428;53.580;-1.666;2023-05-10T09:57:31;7.50;;;2.83;;
33987;SDS011;37428;53.580;-1.666;2023-05-10T10:00:34;3.03;;;1.60;;
33987;SDS011;37428;53.580;-1.666;2023-05-10T10:03:40;2.70;;;1.58;;
33987;SDS011;37428;53.580;-1.666;2023-05-10T10:06:43;4.65;;;1.33;;
33987;SDS011;37428;53.580;-1.666;2023-05-10T10:09:46;4.70;;;2.13;;
33987;SDS011;37428;53.580;-1.666;2023-05-10T10:12:49;5.05;;;1.35;;
33987;SDS011;37428;53.580;-1.666;2023-05-10T10:15:52;3.75;;;2.28;;
33987;SDS011;37428;53.580;-1.666;2023-05-10T10:18:57;4.63;;;2.10;;
33987;SDS011;37428;53.580;-1.666;2023-05-10T10:21:59;4.43;;;2.30;;
33987;SDS011;37428;53.580;-1.666;2023-05-10T10:25:02;6.25;;;2.92;;
33987;SDS011;37428;53.580;-1.666;2023-05-10T10:28:11;4.13;;;3.05;;
33987;SDS011;37428;53.580;-1.666;2023-05-10T10:31:26;4.93;;;3.67;;
33987;SDS011;37428;53.580;-1.666;2023-05-10T10:34:35;4.97;;;3.60;;
33987;SDS011;37428;53.580;-1.666;2023-05-10T10:37:43;6.43;;;4.32;;
33987;SDS011;37428;53.580;-1.666;2023-05-10T10:40:46;5.82;;;4.07;;
33987;SDS011;37428;53.580;-1.666;2023-05-10T10:43:50;5.95;;;3.97;;
33987;SDS011;37428;53.580;-1.666;2023-05-10T10:47:35;2.67;;;2.35;;
33987;SDS011;37428;53.580;-1.666;2023-05-10T10:50:43;4.50;;;2.53;;
33987;SDS011;37428;53.580;-1.666;2023-05-10T10:53:47;3.83;;;2.53;;
33987;SDS011;37428;53.580;-1.666;2023-05-10T10:57:03;3.55;;;2.00;;
33987;SDS011;37428;53.580;-1.666;2023-05-10T11:00:21;3.72;;;2.35;;
33987;SDS011;37428;53.580;-1.666;2023-05-10T11:03:27;4.30;;;1.50;;
33987;SDS011;37428;53.580;-1.666;2023-05-10T11:06:30;3.53;;;1.45;;
33987;SDS011;37428;53.580;-1.666;2023-05-10T11:09:38;4.30;;;1.40;;
33987;SDS011;37428;53.580;-1.666;2023-05-10T11:12:50;2.03;;;1.20;;
33987;SDS011;37428;53.580;-1.666;2023-05-10T11:15:54;1.25;;;1.15;;
33987;SDS011;37428;53.580;-1.666;2023-05-10T11:18:59;1.08;;;0.98;;
33987;SDS011;37428;53.580;-1.666;2023-05-10T11:22:12;2.70;;;1.30;;
33987;SDS011;37428;53.580;-1.666;2023-05-10T11:25:15;1.00;;;0.80;;
33987;SDS011;37428;53.580;-1.666;2023-05-10T11:28:17;0.50;;;0.40;;
33987;SDS011;37428;53.580;-1.666;2023-05-10T11:31:22;1.00;;;0.57;;
33987;SDS011;37428;53.580;-1.666;2023-05-10T11:34:26;1.60;;;0.47;;
33987;SDS011;37428;53.580;-1.666;2023-05-10T11:37:30;0.90;;;0.50;;
33987;SDS011;37428;53.580;-1.666;2023-05-10T11:40:34;1.17;;;0.73;;
33987;SDS011;37428;53.580;-1.666;2023-05-10T11:43:36;0.50;;;0.50;;
33987;SDS011;37428;53.580;-1.666;2023-05-10T11:46:41;1.88;;;0.60;;
33987;SDS011;37428;53.580;-1.666;2023-05-10T11:49:43;2.53;;;0.77;;
33987;SDS011;37428;53.580;-1.666;2023-05-10T11:52:45;1.77;;;1.00;;
33987;SDS011;37428;53.580;-1.666;2023-05-10T11:55:52;1.90;;;0.70;;
33987;SDS011;37428;53.580;-1.666;2023-05-10T11:58:55;2.90;;;0.90;;
33987;SDS011;37428;53.580;-1.666;2023-05-10T12:01:59;2.42;;;0.90;;
33987;SDS011;37428;53.580;-1.666;2023-05-10T12:05:02;3.53;;;1.17;;
33987;SDS011;37428;53.580;-1.666;2023-05-10T12:08:11;2.22;;;1.10;;
33987;SDS011;37428;53.580;-1.666;2023-05-10T12:11:14;1.15;;;0.70;;
33987;SDS011;37428;53.580;-1.666;2023-05-10T12:14:17;1.38;;;0.60;;
33987;SDS011;37428;53.580;-1.666;2023-05-10T12:17:23;0.80;;;0.47;;
33987;SDS011;37428;53.580;-1.666;2023-05-10T12:20:30;1.30;;;1.00;;
33987;SDS011;37428;53.580;-1.666;2023-05-10T12:23:33;2.95;;;1.00;;
33987;SDS011;37428;53.580;-1.666;2023-05-10T12:26:35;1.48;;;0.80;;
33987;SDS011;37428;53.580;-1.666;2023-05-10T12:32:46;2.03;;;0.90;;
33987;SDS011;37428;53.580;-1.666;2023-05-10T12:35:48;1.20;;;0.70;;
33987;SDS011;37428;53.580;-1.666;2023-05-10T12:38:59;1.98;;;0.80;;
33987;SDS011;37428;53.580;-1.666;2023-05-10T12:42:04;0.80;;;0.57;;
33987;SDS011;37428;53.580;-1.666;2023-05-10T12:45:07;0.93;;;0.82;;
33987;SDS011;37428;53.580;-1.666;2023-05-10T12:48:11;0.88;;;0.73;;
33987;SDS011;37428;53.580;-1.666;2023-05-10T12:51:13;1.70;;;0.90;;
33987;SDS011;37428;53.580;-1.666;2023-05-10T12:54:19;4.63;;;0.80;;
33987;SDS011;37428;53.580;-1.666;2023-05-10T12:57:21;2.53;;;0.90;;
33987;SDS011;37428;53.580;-1.666;2023-05-10T13:00:23;1.10;;;0.60;;
33987;SDS011;37428;53.580;-1.666;2023-05-10T13:03:27;1.33;;;0.43;;
33987;SDS011;37428;53.580;-1.666;2023-05-10T13:06:29;0.98;;;0.30;;
33987;SDS011;37428;53.580;-1.666;2023-05-10T13:09:32;2.55;;;0.50;;
33987;SDS011;37428;53.580;-1.666;2023-05-10T13:12:34;0.57;;;0.45;;
33987;SDS011;37428;53.580;-1.666;2023-05-10T13:15:36;1.17;;;0.95;;
33987;SDS011;37428;53.580;-1.666;2023-05-10T13:18:40;2.42;;;0.80;;
33987;SDS011;37428;53.580;-1.666;2023-05-10T13:21:42;2.60;;;0.40;;
33987;SDS011;37428;53.580;-1.666;2023-05-10T13:24:45;1.08;;;0.55;;
33987;SDS011;37428;53.580;-1.666;2023-05-10T13:27:47;0.50;;;0.50;;
33987;SDS011;37428;53.580;-1.666;2023-05-10T13:30:49;1.50;;;0.47;;
33987;SDS011;37428;53.580;-1.666;2023-05-10T13:33:53;0.75;;;0.40;;
33987;SDS011;37428;53.580;-1.666;2023-05-10T13:36:55;0.77;;;0.40;;
33987;SDS011;37428;53.580;-1.666;2023-05-10T13:39:57;1.80;;;0.40;;
33987;SDS011;37428;53.580;-1.666;2023-05-10T13:42:59;1.13;;;0.45;;
33987;SDS011;37428;53.580;-1.666;2023-05-10T13:46:02;3.05;;;1.95;;
33987;SDS011;37428;53.580;-1.666;2023-05-10T13:49:08;1.60;;;0.50;;
33987;SDS011;37428;53.580;-1.666;2023-05-10T13:52:10;1.42;;;0.40;;
33987;SDS011;37428;53.580;-1.666;2023-05-10T13:55:13;2.53;;;0.50;;
33987;SDS011;37428;53.580;-1.666;2023-05-10T13:58:15;0.70;;;0.22;;
33987;SDS011;37428;53.580;-1.666;2023-05-10T14:01:18;0.82;;;0.35;;
33987;SDS011;37428;53.580;-1.666;2023-05-10T14:04:21;0.20;;;0.15;;
33987;SDS011;37428;53.580;-1.666;2023-05-10T14:07:23;1.33;;;0.52;;
33987;SDS011;37428;53.580;-1.666;2023-05-10T14:10:25;0.50;;;0.25;;
33987;SDS011;37428;53.580;-1.666;2023-05-10T14:13:28;0.60;;;0.40;;
33987;SDS011;37428;53.580;-1.666;2023-05-10T14:16:30;2.08;;;0.40;;
33987;SDS011;37428;53.580;-1.666;2023-05-10T14:22:36;0.60;;;0.52;;
33987;SDS011;37428;53.580;-1.666;2023-05-10T14:25:39;0.52;;;0.25;;
33987;SDS011;37428;53.580;-1.666;2023-05-10T14:28:42;7.38;;;0.52;;
33987;SDS011;37428;53.580;-1.666;2023-05-10T14:31:44;0.90;;;0.38;;
33987;SDS011;37428;53.580;-1.666;2023-05-10T14:34:48;0.85;;;0.32;;
33987;SDS011;37428;53.580;-1.666;2023-05-10T14:37:50;1.05;;;0.60;;
33987;SDS011;37428;53.580;-1.666;2023-05-10T14:40:57;1.70;;;0.28;;
33987;SDS011;37428;53.580;-1.666;2023-05-10T14:43:59;1.02;;;0.40;;
33987;SDS011;37428;53.580;-1.666;2023-05-10T14:47:03;0.38;;;0.38;;
33987;SDS011;37428;53.580;-1.666;2023-05-10T14:50:07;1.58;;;0.70;;
33987;SDS011;37428;53.580;-1.666;2023-05-10T14:53:09;1.58;;;0.60;;
33987;SDS011;37428;53.580;-1.666;2023-05-10T14:56:12;3.25;;;1.23;;
33987;SDS011;37428;53.580;-1.666;2023-05-10T14:59:14;2.90;;;0.95;;
33987;SDS011;37428;53.580;-1.666;2023-05-10T15:02:16;1.38;;;0.85;;
33987;SDS011;37428;53.580;-1.666;2023-05-10T15:05:19;4.35;;;0.85;;
33987;SDS011;37428;53.580;-1.666;2023-05-10T15:08:21;2.33;;;1.00;;
33987;SDS011;37428;53.580;-1.666;2023-05-10T15:11:24;3.00;;;0.98;;
33987;SDS011;37428;53.580;-1.666;2023-05-10T15:14:26;3.60;;;0.90;;
33987;SDS011;37428;53.580;-1.666;2023-05-10T15:17:28;1.45;;;1.05;;
33987;SDS011;37428;53.580;-1.666;2023-05-10T15:20:32;3.28;;;1.30;;
33987;SDS011;37428;53.580;-1.666;2023-05-10T15:23:34;1.88;;;1.02;;
33987;SDS011;37428;53.580;-1.666;2023-05-10T15:26:37;5.00;;;1.15;;
33987;SDS011;37428;53.580;-1.666;2023-05-10T15:29:39;1.85;;;0.57;;
33987;SDS011;37428;53.580;-1.666;2023-05-10T15:32:41;1.80;;;0.47;;
33987;SDS011;37428;53.580;-1.666;2023-05-10T15:35:45;1.52;;;1.10;;
33987;SDS011;37428;53.580;-1.666;2023-05-10T15:38:47;3.65;;;1.65;;
33987;SDS011;37428;53.580;-1.666;2023-05-10T15:41:50;2.20;;;0.70;;
33987;SDS011;37428;53.580;-1.666;2023-05-10T15:44:52;1.70;;;0.70;;
33987;SDS011;37428;53.580;-1.666;2023-05-10T15:47:54;1.48;;;0.90;;
33987;SDS011;37428;53.580;-1.666;2023-05-10T15:50:58;2.97;;;1.10;;
33987;SDS011;37428;53.580;-1.666;2023-05-10T15:54:00;2.83;;;0.85;;
33987;SDS011;37428;53.580;-1.666;2023-05-10T15:57:02;2.13;;;0.90;;
33987;SDS011;37428;53.580;-1.666;2023-05-10T16:00:05;2.83;;;1.25;;
33987;SDS011;37428;53.580;-1.666;2023-05-10T16:03:08;2.47;;;1.73;;
33987;SDS011;37428;53.580;-1.666;2023-05-10T16:06:11;2.97;;;1.30;;
33987;SDS011;37428;53.580;-1.666;2023-05-10T16:09:14;3.33;;;1.45;;
33987;SDS011;37428;53.580;-1.666;2023-05-10T16:12:16;3.60;;;1.60;;
33987;SDS011;37428;53.580;-1.666;2023-05-10T16:15:18;2.35;;;1.27;;
33987;SDS011;37428;53.580;-1.666;2023-05-10T16:18:20;3.95;;;1.00;;
33987;SDS011;37428;53.580;-1.666;2023-05-10T16:21:24;2.47;;;0.90;;
33987;SDS011;37428;53.580;-1.666;2023-05-10T16:24:26;3.13;;;1.10;;
33987;SDS011;37428;53.580;-1.666;2023-05-10T16:27:28;4.28;;;0.95;;
33987;SDS011;37428;53.580;-1.666;2023-05-10T16:30:32;1.27;;;0.68;;
33987;SDS011;37428;53.580;-1.666;2023-05-10T16:33:34;1.10;;;0.68;;
33987;SDS011;37428;53.580;-1.666;2023-05-10T16:36:38;9.07;;;1.88;;
33987;SDS011;37428;53.580;-1.666;2023-05-10T16:39:40;0.75;;;0.50;;
33987;SDS011;37428;53.580;-1.666;2023-05-10T16:42:43;1.85;;;0.60;;
33987;SDS011;37428;53.580;-1.666;2023-05-10T16:45:45;2.33;;;0.75;;
33987;SDS011;37428;53.580;-1.666;2023-05-10T16:48:47;0.98;;;0.50;;
33987;SDS011;37428;53.580;-1.666;2023-05-10T16:51:51;1.00;;;0.38;;
33987;SDS011;37428;53.580;-1.666;2023-05-10T16:54:53;2.15;;;0.85;;
33987;SDS011;37428;53.580;-1.666;2023-05-10T16:57:55;0.38;;;0.30;;
33987;SDS011;37428;53.580;-1.666;2023-05-10T17:00:59;3.38;;;0.80;;
33987;SDS011;37428;53.580;-1.666;2023-05-10T17:04:01;3.15;;;0.60;;
33987;SDS011;37428;53.580;-1.666;2023-05-10T17:07:05;0.88;;;0.52;;
33987;SDS011;37428;53.580;-1.666;2023-05-10T17:10:08;3.70;;;1.05;;
33987;SDS011;37428;53.580;-1.666;2023-05-10T17:13:10;2.10;;;1.20;;
33987;SDS011;37428;53.580;-1.666;2023-05-10T17:16:13;2.85;;;0.80;;
33987;SDS011;37428;53.580;-1.666;2023-05-10T17:19:15;2.22;;;0.80;;
33987;SDS011;37428;53.580;-1.666;2023-05-10T17:22:18;1.48;;;1.10;;
33987;SDS011;37428;53.580;-1.666;2023-05-10T17:25:20;2.13;;;0.70;;
33987;SDS011;37428;53.580;-1.666;2023-05-10T17:28:22;3.42;;;0.95;;
33987;SDS011;37428;53.580;-1.666;2023-05-10T17:31:24;1.75;;;0.68;;
33987;SDS011;37428;53.580;-1.666;2023-05-10T17:34:27;1.13;;;0.90;;
33987;SDS011;37428;53.580;-1.666;2023-05-10T17:37:31;3.03;;;1.00;;
33987;SDS011;37428;53.580;-1.666;2023-05-10T17:40:33;1.65;;;0.73;;
33987;SDS011;37428;53.580;-1.666;2023-05-10T17:43:35;0.80;;;0.70;;
33987;SDS011;37428;53.580;-1.666;2023-05-10T17:46:37;3.53;;;0.77;;
33987;SDS011;37428;53.580;-1.666;2023-05-10T17:49:39;1.13;;;0.80;;
33987;SDS011;37428;53.580;-1.666;2023-05-10T17:52:43;2.25;;;1.42;;
33987;SDS011;37428;53.580;-1.666;2023-05-10T17:55:46;3.10;;;0.70;;
33987;SDS011;37428;53.580;-1.666;2023-05-10T17:58:49;2.08;;;0.95;;
33987;SDS011;37428;53.580;-1.666;2023-05-10T18:01:52;4.28;;;1.50;;
33987;SDS011;37428;53.580;-1.666;2023-05-10T18:04:54;1.92;;;1.00;;
33987;SDS011;37428;53.580;-1.666;2023-05-10T18:07:58;0.88;;;0.85;;
33987;SDS011;37428;53.580;-1.666;2023-05-10T18:11:00;4.03;;;1.10;;
33987;SDS011;37428;53.580;-1.666;2023-05-10T18:14:02;2.15;;;1.20;;
33987;SDS011;37428;53.580;-1.666;2023-05-10T18:17:04;3.20;;;1.00;;